Time;durP1;ratioP1;P1;durP2;ratioP2;P2;SDS_P1;SDS_P2;PMS_P1;PMS_P2;Temp;Humidity;BMP_temperature;BMP_pressure;BME280_temperature;BME280_humidity;BME280_pressure;Samples;Min_cycle;Max_cycle;Signal;HPM_P1;HPM_P2
2023/03/18 00:00:31;;;;;;;;;;;;;;;;;;1031058;28;4181;-60
2023/03/18 00:01:18;;;;;;;;;;;;;;;;;;1033601;28;4058;-54
2023/03/18 00:01:48;;;;;;;;;;;;;;;;;;1033654;28;2847;-60
2023/03/18 00:02:20;;;;;;;;;;;;;;;;;;1035162;28;4095;-59
2023/03/18 00:02:51;;;;;;;;;;;;;;;;;;1035021;28;1828;-60
2023/03/18 00:03:21;;;;;;;;;;;;;;;;;;1033934;28;4283;-59
2023/03/18 00:03:51;;;;;;;;;;;;;;;;;;1034252;28;2482;-56
2023/03/18 00:04:23;;;;;;;;;;;;;;;;;;1034768;28;3884;-56
2023/03/18 00:04:53;;;;;;;;;;;;;;;;;;1034270;28;1734;-56
2023/03/18 00:05:23;;;;;;;;;;;;;;;;;;1031586;28;4134;-60
2023/03/18 00:06:01;;;;;;;;;;;;;;;;;;1034405;28;1769;-55
2023/03/18 00:06:31;;;;;;;;;;;;;;;;;;1033060;28;4135;-54
2023/03/18 00:07:01;;;;;;;;;;;;;;;;;;1033419;28;2696;-57
2023/03/18 00:07:32;;;;;;;;;;;;;;;;;;1034040;28;4076;-57
2023/03/18 00:08:03;;;;;;;;;;;;;;;;;;1034447;28;1634;-57
2023/03/18 00:08:34;;;;;;;;;;;;;;;;;;1034498;28;4164;-58
2023/03/18 00:09:05;;;;;;;;;;;;;;;;;;1034023;28;1768;-57
2023/03/18 00:09:35;;;;;;;;;;;;;;;;;;1034566;28;3967;-55
2023/03/18 00:10:06;;;;;;;;;;;;;;;;;;1030803;28;2884;-57
2023/03/18 00:10:37;;;;;;;;;;;;;;;;;;1032568;28;4056;-57
2023/03/18 00:11:08;;;;;;;;;;;;;;;;;;1035081;28;1672;-57
2023/03/18 00:11:39;;;;;;;;;;;;;;;;;;1031956;28;4175;-55
2023/03/18 00:12:09;;;;;;;;;;;;;;;;;;1034623;28;2423;-61
2023/03/18 00:12:40;;;;;;;;;;;;;;;;;;1034103;28;3981;-59
2023/03/18 00:13:10;;;;;;;;;;;;;;;;;;1033790;28;2608;-55
2023/03/18 00:13:41;;;;;;;;;;;;;;;;;;1034503;28;4025;-58
2023/03/18 00:14:11;;;;;;;;;;;;;;;;;;1034971;28;2104;-56
2023/03/18 00:14:42;;;;;;;;;;;;;;;;;;1033328;28;3873;-60
2023/03/18 00:15:14;;;;;;;;;;;;;;;;;;1033294;28;2733;-58
2023/03/18 00:15:45;;;;;;;;;;;;;;;;;;1033399;28;4070;-55
2023/03/18 00:16:15;;;;;;;;;;;;;;;;;;1033671;28;1852;-57
2023/03/18 00:16:46;;;;;;;;;;;;;;;;;;1035098;28;3972;-55
2023/03/18 00:17:16;;;;;;;;;;;;;;;;;;1032435;28;1870;-59
2023/03/18 00:17:47;;;;;;;;;;;;;;;;;;1034580;28;4055;-58
2023/03/18 00:18:18;;;;;;;;;;;;;;;;;;1034016;28;2798;-55
2023/03/18 00:18:48;;;;;;;;;;;;;;;;;;1034013;28;3985;-57
2023/03/18 00:19:19;;;;;;;;;;;;;;;;;;1033642;28;4042;-58
2023/03/18 00:19:49;;;;;;;;;;;;;;;;;;1032873;28;1831;-57
2023/03/18 00:20:27;;;;;;;;;;;;;;;;;;1033242;28;3903;-59
2023/03/18 00:20:59;;;;;;;;;;;;;;;;;;1033538;28;2816;-57
2023/03/18 00:21:30;;;;;;;;;;;;;;;;;;1032556;28;3887;-58
2023/03/18 00:22:01;;;;;;;;;;;;;;;;;;1033859;28;2149;-56
2023/03/18 00:22:32;;;;;;;;;;;;;;;;;;1032716;28;4072;-57
2023/03/18 00:23:03;;;;;;;;;;;;;;;;;;1034494;28;1701;-58
2023/03/18 00:23:33;;;;;;;;;;;;;;;;;;1033649;28;4056;-54
2023/03/18 00:24:04;;;;;;;;;;;;;;;;;;1033725;28;2259;-55
2023/03/18 00:24:35;;;;;;;;;;;;;;;;;;1034695;28;4044;-60
2023/03/18 00:25:06;;;;;;;;;;;;;;;;;;1034210;28;1897;-56
2023/03/18 00:25:37;;;;;;;;;;;;;;;;;;1029208;28;4093;-58
2023/03/18 00:26:08;;;;;;;;;;;;;;;;;;1034235;28;1820;-60
2023/03/18 00:26:38;;;;;;;;;;;;;;;;;;1033822;28;3795;-58
2023/03/18 00:27:09;;;;;;;;;;;;;;;;;;1034496;28;1736;-53
2023/03/18 00:27:39;;;;;;;;;;;;;;;;;;1033264;28;4062;-58
2023/03/18 00:28:10;;;;;;;;;;;;;;;;;;1033880;28;1870;-58
2023/03/18 00:28:40;;;;;;;;;;;;;;;;;;1034172;28;4114;-54
2023/03/18 00:29:11;;;;;;;;;;;;;;;;;;1034676;28;2039;-59
2023/03/18 00:29:41;;;;;;;;;;;;;;;;;;1030787;28;3737;-59
2023/03/18 00:30:12;;;;;;;;;;;;;;;;;;1032966;28;2233;-58
2023/03/18 00:30:42;;;;;;;;;;;;;;;;;;1034713;28;3773;-56
2023/03/18 00:31:12;;;;;;;;;;;;;;;;;;1034555;28;1796;-58
2023/03/18 00:31:43;;;;;;;;;;;;;;;;;;1033206;28;4058;-57
2023/03/18 00:32:14;;;;;;;;;;;;;;;;;;1034319;28;1697;-57
2023/03/18 00:32:45;;;;;;;;;;;;;;;;;;1033441;28;4003;-56
2023/03/18 00:33:16;;;;;;;;;;;;;;;;;;1033921;28;1862;-55
2023/03/18 00:33:49;;;;;;;;;;;;;;;;;;1033836;28;4318;-54
2023/03/18 00:34:19;;;;;;;;;;;;;;;;;;1032190;28;3899;-57
2023/03/18 00:34:50;;;;;;;;;;;;;;;;;;1032838;28;1787;-55
2023/03/18 00:35:20;;;;;;;;;;;;;;;;;;1031770;28;4057;-59
2023/03/18 00:35:52;;;;;;;;;;;;;;;;;;1035814;28;1673;-57
2023/03/18 00:36:24;;;;;;;;;;;;;;;;;;1032983;28;3883;-60
2023/03/18 00:36:55;;;;;;;;;;;;;;;;;;1030102;28;2908;-60
2023/03/18 00:37:29;;;;;;;;;;;;;;;;;;1033764;28;3816;-56
2023/03/18 00:37:59;;;;;;;;;;;;;;;;;;1033755;28;2112;-58
2023/03/18 00:38:29;;;;;;;;;;;;;;;;;;1033664;28;3847;-59
2023/03/18 00:39:02;;;;;;;;;;;;;;;;;;1035046;28;1856;-52
2023/03/18 00:39:32;;;;;;;;;;;;;;;;;;1033126;28;3974;-57
2023/03/18 00:40:05;;;;;;;;;;;;;;;;;;1032383;28;1881;-57
2023/03/18 00:41:36;;;;;;;;;;;;;;;;;;1031361;28;4056;-56
2023/03/18 00:41:36;;;;;;;;;;;;;;;;;;1032712;28;4063;-57
2023/03/18 00:42:09;;;;;;;;;;;;;;;;;;1033832;28;2202;-59
2023/03/18 00:42:46;;;;;;;;;;;;;;;;;;1031230;28;3998;-58
2023/03/18 00:43:16;;;;;;;;;;;;;;;;;;1032887;28;2750;-54
2023/03/18 00:43:56;;;;;;;;;;;;;;;;;;1033755;28;3721;-55
2023/03/18 00:44:26;;;;;;;;;;;;;;;;;;1035539;28;3808;-60
2023/03/18 00:44:56;;;;;;;;;;;;;;;;;;1033278;28;2204;-58
2023/03/18 00:45:27;;;;;;;;;;;;;;;;;;1031613;28;3868;-61
2023/03/18 00:45:57;;;;;;;;;;;;;;;;;;1033048;28;2832;-56
2023/03/18 00:46:29;;;;;;;;;;;;;;;;;;1033495;28;4064;-57
2023/03/18 00:47:00;;;;;;;;;;;;;;;;;;1031578;28;2676;-57
2023/03/18 00:47:30;;;;;;;;;;;;;;;;;;1034863;28;3814;-56
2023/03/18 00:48:00;;;;;;;;;;;;;;;;;;1034255;28;2792;-55
2023/03/18 00:48:31;;;;;;;;;;;;;;;;;;1034568;28;4437;-59
2023/03/18 00:49:03;;;;;;;;;;;;;;;;;;1034854;28;1406;-57
2023/03/18 00:49:34;;;;;;;;;;;;;;;;;;1032689;28;3892;-55
2023/03/18 00:50:06;;;;;;;;;;;;;;;;;;1033469;28;2266;-56
2023/03/18 00:50:36;;;;;;;;;;;;;;;;;;1034044;28;3890;-57
2023/03/18 00:51:06;;;;;;;;;;;;;;;;;;1033512;28;2832;-56
2023/03/18 00:51:37;;;;;;;;;;;;;;;;;;1031110;28;4094;-56
2023/03/18 00:52:07;;;;;;;;;;;;;;;;;;1034646;28;2662;-58
2023/03/18 00:52:38;;;;;;;;;;;;;;;;;;1033900;28;3821;-56
2023/03/18 00:53:08;;;;;;;;;;;;;;;;;;1033274;28;2821;-55
2023/03/18 00:53:40;;;;;;;;;;;;;;;;;;1031962;28;3967;-52
2023/03/18 00:54:12;;;;;;;;;;;;;;;;;;1034859;28;1579;-57
2023/03/18 00:54:42;;;;;;;;;;;;;;;;;;1034015;28;3779;-57
2023/03/18 00:55:13;;;;;;;;;;;;;;;;;;1035026;28;1690;-57
2023/03/18 00:55:44;;;;;;;;;;;;;;;;;;1032259;28;4071;-57
2023/03/18 00:56:14;;;;;;;;;;;;;;;;;;1034219;28;2714;-52
2023/03/18 00:56:45;;;;;;;;;;;;;;;;;;1033794;28;3804;-59
2023/03/18 00:57:16;;;;;;;;;;;;;;;;;;1034100;28;2746;-60
2023/03/18 00:57:46;;;;;;;;;;;;;;;;;;1033344;28;4007;-56
2023/03/18 00:58:17;;;;;;;;;;;;;;;;;;1034798;28;1997;-57
2023/03/18 00:58:49;;;;;;;;;;;;;;;;;;1034627;28;3815;-56
2023/03/18 00:59:19;;;;;;;;;;;;;;;;;;1033393;28;3956;-58
2023/03/18 00:59:50;;;;;;;;;;;;;;;;;;1037707;28;2113;-54
2023/03/18 01:00:21;;;;;;;;;;;;;;;;;;1034439;28;4080;-59
2023/03/18 01:00:51;;;;;;;;;;;;;;;;;;1039564;28;1765;-56
2023/03/18 01:01:22;;;;;;;;;;;;;;;;;;1035935;28;3985;-54
2023/03/18 01:01:52;;;;;;;;;;;;;;;;;;1038012;28;1780;-56
2023/03/18 01:02:23;;;;;;;;;;;;;;;;;;1035765;28;4137;-59
2023/03/18 01:02:54;;;;;;;;;;;;;;;;;;1038156;28;2722;-57
2023/03/18 01:03:25;;;;;;;;;;;;;;;;;;1037221;28;3922;-58
2023/03/18 01:03:55;;;;;;;;;;;;;;;;;;1038141;28;1824;-58
2023/03/18 01:04:26;;;;;;;;;;;;;;;;;;1036147;28;3941;-54
2023/03/18 01:04:57;;;;;;;;;;;;;;;;;;1038532;28;2791;-59
2023/03/18 01:05:28;;;;;;;;;;;;;;;;;;1038572;28;4058;-53
2023/03/18 01:06:03;;;;;;;;;;;;;;;;;;1038970;28;1861;-54
2023/03/18 01:06:34;;;;;;;;;;;;;;;;;;1035733;28;3963;-54
2023/03/18 01:07:04;;;;;;;;;;;;;;;;;;1037687;28;2231;-58
2023/03/18 01:07:35;;;;;;;;;;;;;;;;;;1038414;28;3944;-57
2023/03/18 01:08:05;;;;;;;;;;;;;;;;;;1037606;28;1993;-54
2023/03/18 01:08:36;;;;;;;;;;;;;;;;;;1039889;28;3916;-59
2023/03/18 01:09:07;;;;;;;;;;;;;;;;;;1041264;28;2895;-57
2023/03/18 01:09:39;;;;;;;;;;;;;;;;;;1038020;28;3789;-58
2023/03/18 01:10:11;;;;;;;;;;;;;;;;;;1038064;28;1886;-55
2023/03/18 01:10:41;;;;;;;;;;;;;;;;;;1038135;28;3882;-57
2023/03/18 01:11:12;;;;;;;;;;;;;;;;;;1035758;28;2330;-57
2023/03/18 01:11:42;;;;;;;;;;;;;;;;;;1035804;28;4037;-56
2023/03/18 01:12:13;;;;;;;;;;;;;;;;;;1036067;28;2966;-53
2023/03/18 01:12:45;;;;;;;;;;;;;;;;;;1038282;28;4055;-53
2023/03/18 01:13:16;;;;;;;;;;;;;;;;;;1039788;28;2842;-55
2023/03/18 01:13:46;;;;;;;;;;;;;;;;;;1035455;28;3929;-57
2023/03/18 01:14:16;;;;;;;;;;;;;;;;;;1037249;28;2363;-54
2023/03/18 01:14:47;;;;;;;;;;;;;;;;;;1036904;28;3956;-55
2023/03/18 01:15:18;;;;;;;;;;;;;;;;;;1035002;28;2811;-59
2023/03/18 01:15:49;;;;;;;;;;;;;;;;;;1039473;28;3972;-56
2023/03/18 01:16:20;;;;;;;;;;;;;;;;;;1037874;28;4190;-57
2023/03/18 01:16:50;;;;;;;;;;;;;;;;;;1037049;28;2763;-55
2023/03/18 01:17:20;;;;;;;;;;;;;;;;;;1037092;28;4109;-57
2023/03/18 01:17:53;;;;;;;;;;;;;;;;;;1035373;28;2836;-57
2023/03/18 01:18:23;;;;;;;;;;;;;;;;;;1038508;28;4098;-57
2023/03/18 01:18:54;;;;;;;;;;;;;;;;;;1037120;28;2514;-58
2023/03/18 01:19:25;;;;;;;;;;;;;;;;;;1036201;28;4053;-60
2023/03/18 01:19:55;;;;;;;;;;;;;;;;;;1036331;28;2811;-60
2023/03/18 01:20:26;;;;;;;;;;;;;;;;;;1038073;28;4048;-56
2023/03/18 01:20:56;;;;;;;;;;;;;;;;;;1038654;28;1969;-57
2023/03/18 01:21:27;;;;;;;;;;;;;;;;;;1038278;28;3902;-57
2023/03/18 01:21:57;;;;;;;;;;;;;;;;;;1036255;28;2754;-56
2023/03/18 01:22:28;;;;;;;;;;;;;;;;;;1037637;28;4093;-58
2023/03/18 01:22:59;;;;;;;;;;;;;;;;;;1038477;28;2559;-56
2023/03/18 01:23:29;;;;;;;;;;;;;;;;;;1036403;28;3922;-59
2023/03/18 01:24:00;;;;;;;;;;;;;;;;;;1037743;28;2189;-59
2023/03/18 01:24:30;;;;;;;;;;;;;;;;;;1035761;28;3954;-57
2023/03/18 01:25:01;;;;;;;;;;;;;;;;;;1037868;28;2118;-55
2023/03/18 01:25:32;;;;;;;;;;;;;;;;;;1036783;28;3806;-60
2023/03/18 01:26:03;;;;;;;;;;;;;;;;;;1035994;28;3061;-59
2023/03/18 01:26:33;;;;;;;;;;;;;;;;;;1036080;28;4040;-57
2023/03/18 01:27:05;;;;;;;;;;;;;;;;;;1038295;28;1772;-55
2023/03/18 01:27:35;;;;;;;;;;;;;;;;;;1036670;28;4164;-57
2023/03/18 01:28:05;;;;;;;;;;;;;;;;;;1038184;28;1664;-58
2023/03/18 01:28:36;;;;;;;;;;;;;;;;;;1031936;28;4162;-57
2023/03/18 01:29:06;;;;;;;;;;;;;;;;;;1034619;28;2889;-57
2023/03/18 01:29:37;;;;;;;;;;;;;;;;;;1035994;28;3901;-58
2023/03/18 01:30:08;;;;;;;;;;;;;;;;;;1036974;28;2218;-53
2023/03/18 01:30:38;;;;;;;;;;;;;;;;;;1038558;28;4050;-54
2023/03/18 01:31:09;;;;;;;;;;;;;;;;;;1035215;28;2451;-56
2023/03/18 01:31:39;;;;;;;;;;;;;;;;;;1037593;28;4099;-58
2023/03/18 01:32:10;;;;;;;;;;;;;;;;;;1038848;28;2890;-58
2023/03/18 01:32:42;;;;;;;;;;;;;;;;;;1039472;28;4153;-60
2023/03/18 01:33:12;;;;;;;;;;;;;;;;;;1038672;28;1685;-55
2023/03/18 01:33:43;;;;;;;;;;;;;;;;;;1038662;28;4012;-58
2023/03/18 01:34:15;;;;;;;;;;;;;;;;;;1037956;28;2207;-56
2023/03/18 01:34:45;;;;;;;;;;;;;;;;;;1038823;28;4145;-59
2023/03/18 01:35:16;;;;;;;;;;;;;;;;;;1038691;28;2749;-59
2023/03/18 01:35:53;;;;;;;;;;;;;;;;;;1038031;28;3980;-57
2023/03/18 01:36:23;;;;;;;;;;;;;;;;;;1035705;28;4538;-57
2023/03/18 01:36:54;;;;;;;;;;;;;;;;;;1039052;28;1690;-55
2023/03/18 01:37:25;;;;;;;;;;;;;;;;;;1038676;28;3866;-60
2023/03/18 01:37:56;;;;;;;;;;;;;;;;;;1038062;28;2274;-58
2023/03/18 01:38:29;;;;;;;;;;;;;;;;;;1039657;28;4093;-60
2023/03/18 01:38:59;;;;;;;;;;;;;;;;;;1038546;28;1858;-56
2023/03/18 01:39:29;;;;;;;;;;;;;;;;;;1037541;28;3887;-56
2023/03/18 01:40:00;;;;;;;;;;;;;;;;;;1038214;28;1819;-57
2023/03/18 01:40:31;;;;;;;;;;;;;;;;;;1039285;28;4432;-59
2023/03/18 01:41:02;;;;;;;;;;;;;;;;;;1038600;28;1854;-57
2023/03/18 01:41:32;;;;;;;;;;;;;;;;;;1037955;28;4064;-60
2023/03/18 01:42:02;;;;;;;;;;;;;;;;;;1034782;28;2703;-59
2023/03/18 01:42:34;;;;;;;;;;;;;;;;;;1033672;28;3894;-59
2023/03/18 01:43:12;;;;;;;;;;;;;;;;;;1035359;28;3084;-59
2023/03/18 01:43:42;;;;;;;;;;;;;;;;;;1038653;28;4170;-53
2023/03/18 01:44:14;;;;;;;;;;;;;;;;;;1039356;28;2158;-54
2023/03/18 01:44:47;;;;;;;;;;;;;;;;;;1039512;28;3965;-57
2023/03/18 01:45:23;;;;;;;;;;;;;;;;;;1038323;28;2672;-57
2023/03/18 01:45:55;;;;;;;;;;;;;;;;;;1033343;28;3619;-57
2023/03/18 01:46:28;;;;;;;;;;;;;;;;;;1034828;28;5224;-59
2023/03/18 01:46:58;;;;;;;;;;;;;;;;;;1034665;28;1866;-57
2023/03/18 01:47:29;;;;;;;;;;;;;;;;;;1035438;28;3967;-60
2023/03/18 01:48:00;;;;;;;;;;;;;;;;;;1033513;28;1668;-58
2023/03/18 01:48:32;;;;;;;;;;;;;;;;;;1035084;28;4113;-52
2023/03/18 01:49:09;;;;;;;;;;;;;;;;;;1035347;28;1772;-59
2023/03/18 01:49:44;;;;;;;;;;;;;;;;;;1034946;28;3884;-57
2023/03/18 01:50:17;;;;;;;;;;;;;;;;;;1034959;28;1842;-54
2023/03/18 01:50:51;;;;;;;;;;;;;;;;;;1035330;28;3799;-58
2023/03/18 01:51:23;;;;;;;;;;;;;;;;;;1033957;28;3878;-60
2023/03/18 01:51:56;;;;;;;;;;;;;;;;;;1035899;28;1640;-58
2023/03/18 01:52:28;;;;;;;;;;;;;;;;;;1034531;28;4095;-60
2023/03/18 01:53:02;;;;;;;;;;;;;;;;;;1035132;28;1807;-59
2023/03/18 01:53:37;;;;;;;;;;;;;;;;;;1034101;28;3879;-57
2023/03/18 01:54:09;;;;;;;;;;;;;;;;;;1035524;28;1651;-55
2023/03/18 01:54:42;;;;;;;;;;;;;;;;;;1035109;28;4217;-61
2023/03/18 01:55:18;;;;;;;;;;;;;;;;;;1035171;28;2366;-56
2023/03/18 01:55:49;;;;;;;;;;;;;;;;;;1031325;28;4384;-56
2023/03/18 01:56:20;;;;;;;;;;;;;;;;;;1034498;28;4129;-53
2023/03/18 01:56:51;;;;;;;;;;;;;;;;;;1035579;28;1778;-54
2023/03/18 01:57:22;;;;;;;;;;;;;;;;;;1035009;28;4082;-59
2023/03/18 01:57:53;;;;;;;;;;;;;;;;;;1032606;28;2794;-59
2023/03/18 01:58:30;;;;;;;;;;;;;;;;;;1033772;28;3812;-56
2023/03/18 01:59:00;;;;;;;;;;;;;;;;;;1034095;28;1686;-57
2023/03/18 01:59:32;;;;;;;;;;;;;;;;;;1034282;28;4079;-57
2023/03/18 02:00:03;;;;;;;;;;;;;;;;;;1034729;28;1720;-60
2023/03/18 02:00:37;;;;;;;;;;;;;;;;;;1032984;28;3965;-59
2023/03/18 02:01:11;;;;;;;;;;;;;;;;;;1033900;28;1651;-60
2023/03/18 02:01:48;;;;;;;;;;;;;;;;;;1034618;28;3898;-57
2023/03/18 02:02:19;;;;;;;;;;;;;;;;;;1034672;28;1893;-55
2023/03/18 02:02:51;;;;;;;;;;;;;;;;;;1030506;28;5275;-58
2023/03/18 02:03:22;;;;;;;;;;;;;;;;;;1030615;28;3891;-56
2023/03/18 02:03:54;;;;;;;;;;;;;;;;;;1030606;28;1898;-55
2023/03/18 02:04:26;;;;;;;;;;;;;;;;;;1030587;28;4056;-55
2023/03/18 02:05:00;;;;;;;;;;;;;;;;;;1034694;28;1928;-57
2023/03/18 02:05:31;;;;;;;;;;;;;;;;;;1034165;28;4049;-55
2023/03/18 02:06:02;;;;;;;;;;;;;;;;;;1033961;28;2702;-56
2023/03/18 02:06:32;;;;;;;;;;;;;;;;;;1033776;28;4142;-55
2023/03/18 02:07:03;;;;;;;;;;;;;;;;;;1034358;28;2772;-56
2023/03/18 02:07:34;;;;;;;;;;;;;;;;;;1036015;28;3869;-56
2023/03/18 02:08:04;;;;;;;;;;;;;;;;;;1038551;28;2776;-56
2023/03/18 02:08:35;;;;;;;;;;;;;;;;;;1037214;28;4086;-57
2023/03/18 02:09:07;;;;;;;;;;;;;;;;;;1037266;28;1851;-56
2023/03/18 02:09:37;;;;;;;;;;;;;;;;;;1036253;28;3882;-58
2023/03/18 02:10:12;;;;;;;;;;;;;;;;;;1038770;28;1972;-57
2023/03/18 02:10:44;;;;;;;;;;;;;;;;;;1037917;28;4042;-55
2023/03/18 02:11:14;;;;;;;;;;;;;;;;;;1036825;28;1969;-58
2023/03/18 02:11:48;;;;;;;;;;;;;;;;;;1037383;28;4116;-55
2023/03/18 02:12:23;;;;;;;;;;;;;;;;;;1037806;28;3802;-58
2023/03/18 02:13:02;;;;;;;;;;;;;;;;;;1038443;28;3203;-57
2023/03/18 02:13:37;;;;;;;;;;;;;;;;;;1037395;28;4239;-56
2023/03/18 02:14:09;;;;;;;;;;;;;;;;;;1038962;28;2128;-56
2023/03/18 02:14:39;;;;;;;;;;;;;;;;;;1036343;28;3894;-56
2023/03/18 02:15:12;;;;;;;;;;;;;;;;;;1036860;28;2272;-58
2023/03/18 02:15:51;;;;;;;;;;;;;;;;;;1037439;28;4061;-61
2023/03/18 02:16:26;;;;;;;;;;;;;;;;;;1037548;28;4168;-58
2023/03/18 02:17:00;;;;;;;;;;;;;;;;;;1036693;28;2905;-57
2023/03/18 02:17:33;;;;;;;;;;;;;;;;;;1038463;28;3869;-57
2023/03/18 02:18:04;;;;;;;;;;;;;;;;;;1038346;28;1906;-59
2023/03/18 02:18:37;;;;;;;;;;;;;;;;;;1039008;28;4447;-58
2023/03/18 02:19:16;;;;;;;;;;;;;;;;;;1035057;28;2901;-56
2023/03/18 02:20:05;;;;;;;;;;;;;;;;;;1038631;28;3773;-56
2023/03/18 02:20:54;;;;;;;;;;;;;;;;;;1035858;28;4101;-57
2023/03/18 02:21:39;;;;;;;;;;;;;;;;;;1037424;28;4075;-58
2023/03/18 02:22:21;;;;;;;;;;;;;;;;;;1038495;28;1714;-58
2023/03/18 02:22:53;;;;;;;;;;;;;;;;;;1036601;28;3663;-58
2023/03/18 02:23:28;;;;;;;;;;;;;;;;;;1037264;28;3823;-58
2023/03/18 02:24:11;;;;;;;;;;;;;;;;;;1037159;28;2691;-58
2023/03/18 02:24:55;;;;;;;;;;;;;;;;;;1038805;28;4051;-57
2023/03/18 02:25:32;;;;;;;;;;;;;;;;;;1036038;28;4029;-57
2023/03/18 02:26:07;;;;;;;;;;;;;;;;;;1038453;28;2929;-59
2023/03/18 02:26:50;;;;;;;;;;;;;;;;;;1038444;28;3794;-55
2023/03/18 02:27:25;;;;;;;;;;;;;;;;;;1036904;28;4063;-57
2023/03/18 02:28:00;;;;;;;;;;;;;;;;;;1036060;28;2405;-53
2023/03/18 02:28:32;;;;;;;;;;;;;;;;;;1036236;28;4085;-54
2023/03/18 02:29:03;;;;;;;;;;;;;;;;;;1035125;28;2896;-57
2023/03/18 02:29:35;;;;;;;;;;;;;;;;;;1037199;28;4284;-56
2023/03/18 02:30:09;;;;;;;;;;;;;;;;;;1037798;28;3132;-56
2023/03/18 02:30:41;;;;;;;;;;;;;;;;;;1037331;28;3865;-57
2023/03/18 02:31:13;;;;;;;;;;;;;;;;;;1037630;28;2817;-60
2023/03/18 02:31:44;;;;;;;;;;;;;;;;;;1038489;28;3884;-60
2023/03/18 02:32:15;;;;;;;;;;;;;;;;;;1038741;28;1765;-57
2023/03/18 02:32:47;;;;;;;;;;;;;;;;;;1037626;28;4067;-53
2023/03/18 02:33:18;;;;;;;;;;;;;;;;;;1037312;28;2902;-54
2023/03/18 02:33:49;;;;;;;;;;;;;;;;;;1038665;28;3784;-57
2023/03/18 02:34:21;;;;;;;;;;;;;;;;;;1035944;28;3917;-59
2023/03/18 02:34:52;;;;;;;;;;;;;;;;;;1036352;28;2814;-60
2023/03/18 02:35:23;;;;;;;;;;;;;;;;;;1037711;28;4028;-53
2023/03/18 02:35:56;;;;;;;;;;;;;;;;;;1038247;28;2710;-58
2023/03/18 02:36:28;;;;;;;;;;;;;;;;;;1037466;28;4042;-55
2023/03/18 02:36:58;;;;;;;;;;;;;;;;;;1035912;28;2747;-56
2023/03/18 02:37:29;;;;;;;;;;;;;;;;;;1038314;28;4085;-57
2023/03/18 02:37:59;;;;;;;;;;;;;;;;;;1039160;28;1757;-59
2023/03/18 02:38:30;;;;;;;;;;;;;;;;;;1034902;28;4295;-59
2023/03/18 02:39:00;;;;;;;;;;;;;;;;;;1036296;28;1954;-56
2023/03/18 02:39:30;;;;;;;;;;;;;;;;;;1038178;28;4043;-59
2023/03/18 02:40:18;;;;;;;;;;;;;;;;;;1037551;28;1811;-55
2023/03/18 02:40:48;;;;;;;;;;;;;;;;;;1037115;28;3825;-58
2023/03/18 02:41:20;;;;;;;;;;;;;;;;;;1036655;28;3888;-60
2023/03/18 02:41:51;;;;;;;;;;;;;;;;;;1038846;28;1926;-58
2023/03/18 02:42:28;;;;;;;;;;;;;;;;;;1037739;28;4117;-58
2023/03/18 02:43:17;;;;;;;;;;;;;;;;;;1038089;28;1706;-56
2023/03/18 02:43:48;;;;;;;;;;;;;;;;;;1038832;28;4104;-54
2023/03/18 02:44:20;;;;;;;;;;;;;;;;;;1035969;28;4057;-54
2023/03/18 02:44:50;;;;;;;;;;;;;;;;;;1038339;28;1854;-57
2023/03/18 02:45:34;;;;;;;;;;;;;;;;;;1035037;28;3815;-57
2023/03/18 02:46:25;;;;;;;;;;;;;;;;;;1038314;28;2646;-55
2023/03/18 02:47:01;;;;;;;;;;;;;;;;;;1033370;28;4122;-61
2023/03/18 02:47:32;;;;;;;;;;;;;;;;;;1033041;28;4261;-59
2023/03/18 02:48:04;;;;;;;;;;;;;;;;;;1035434;28;2059;-56
2023/03/18 02:48:38;;;;;;;;;;;;;;;;;;1036596;28;3816;-57
2023/03/18 02:49:09;;;;;;;;;;;;;;;;;;1037768;28;2140;-59
2023/03/18 02:49:40;;;;;;;;;;;;;;;;;;1034196;28;4053;-56
2023/03/18 02:50:10;;;;;;;;;;;;;;;;;;1038244;28;2681;-57
2023/03/18 02:50:40;;;;;;;;;;;;;;;;;;1038864;28;4067;-53
2023/03/18 02:51:12;;;;;;;;;;;;;;;;;;1036340;28;2709;-55
2023/03/18 02:51:42;;;;;;;;;;;;;;;;;;1037519;28;4161;-59
2023/03/18 02:52:12;;;;;;;;;;;;;;;;;;1038952;28;2764;-56
2023/03/18 02:52:43;;;;;;;;;;;;;;;;;;1038444;28;4038;-57
2023/03/18 02:53:14;;;;;;;;;;;;;;;;;;1035419;28;3069;-57
2023/03/18 02:53:44;;;;;;;;;;;;;;;;;;1037470;28;4035;-60
2023/03/18 02:54:17;;;;;;;;;;;;;;;;;;1038044;28;1961;-55
2023/03/18 02:54:47;;;;;;;;;;;;;;;;;;1038422;28;3974;-53
2023/03/18 02:55:18;;;;;;;;;;;;;;;;;;1037918;28;2518;-57
2023/03/18 02:55:48;;;;;;;;;;;;;;;;;;1034977;28;3802;-56
2023/03/18 02:56:18;;;;;;;;;;;;;;;;;;1036277;28;4083;-54
2023/03/18 02:56:49;;;;;;;;;;;;;;;;;;1037880;28;2745;-59
2023/03/18 02:57:19;;;;;;;;;;;;;;;;;;1036735;28;4251;-52
2023/03/18 02:57:49;;;;;;;;;;;;;;;;;;1036039;28;2322;-57
2023/03/18 02:58:20;;;;;;;;;;;;;;;;;;1038917;28;4065;-57
2023/03/18 02:58:50;;;;;;;;;;;;;;;;;;1037036;28;2809;-57
2023/03/18 02:59:21;;;;;;;;;;;;;;;;;;1037009;28;4077;-56
2023/03/18 02:59:51;;;;;;;;;;;;;;;;;;1037195;28;3162;-60
2023/03/18 03:00:22;;;;;;;;;;;;;;;;;;1036974;28;3927;-55
2023/03/18 03:00:53;;;;;;;;;;;;;;;;;;1038239;28;2817;-57
2023/03/18 03:01:24;;;;;;;;;;;;;;;;;;1038843;28;3822;-59
2023/03/18 03:01:54;;;;;;;;;;;;;;;;;;1036515;28;2255;-59
2023/03/18 03:02:25;;;;;;;;;;;;;;;;;;1039193;28;3909;-56
2023/03/18 03:02:55;;;;;;;;;;;;;;;;;;1037668;28;2813;-57
2023/03/18 03:03:26;;;;;;;;;;;;;;;;;;1036392;28;3887;-57
2023/03/18 03:03:57;;;;;;;;;;;;;;;;;;1038609;28;1793;-59
2023/03/18 03:04:27;;;;;;;;;;;;;;;;;;1036863;28;3890;-59
2023/03/18 03:04:57;;;;;;;;;;;;;;;;;;1037375;28;2778;-59
2023/03/18 03:05:28;;;;;;;;;;;;;;;;;;1036773;28;4076;-55
2023/03/18 03:05:58;;;;;;;;;;;;;;;;;;1038554;28;1780;-55
2023/03/18 03:06:29;;;;;;;;;;;;;;;;;;1035960;28;4074;-55
2023/03/18 03:07:00;;;;;;;;;;;;;;;;;;1038420;28;2743;-60
2023/03/18 03:07:30;;;;;;;;;;;;;;;;;;1036442;28;3872;-55
2023/03/18 03:08:01;;;;;;;;;;;;;;;;;;1034466;28;2805;-54
2023/03/18 03:08:31;;;;;;;;;;;;;;;;;;1037132;28;4075;-58
2023/03/18 03:09:03;;;;;;;;;;;;;;;;;;1038062;28;2355;-57
2023/03/18 03:09:34;;;;;;;;;;;;;;;;;;1036945;28;4369;-57
2023/03/18 03:10:04;;;;;;;;;;;;;;;;;;1038411;28;2657;-59
2023/03/18 03:10:35;;;;;;;;;;;;;;;;;;1036571;28;3930;-56
2023/03/18 03:11:07;;;;;;;;;;;;;;;;;;1037091;28;3132;-57
2023/03/18 03:11:38;;;;;;;;;;;;;;;;;;1036176;28;3959;-58
2023/03/18 03:12:08;;;;;;;;;;;;;;;;;;1036986;28;2779;-59
2023/03/18 03:12:38;;;;;;;;;;;;;;;;;;1039298;28;4417;-56
2023/03/18 03:13:10;;;;;;;;;;;;;;;;;;1034144;28;3434;-55
2023/03/18 03:13:40;;;;;;;;;;;;;;;;;;1037229;28;4012;-54
2023/03/18 03:14:12;;;;;;;;;;;;;;;;;;1040013;28;1787;-55
2023/03/18 03:14:42;;;;;;;;;;;;;;;;;;1038234;28;4078;-57
2023/03/18 03:15:13;;;;;;;;;;;;;;;;;;1035490;28;2715;-58
2023/03/18 03:15:43;;;;;;;;;;;;;;;;;;1038970;28;3896;-55
2023/03/18 03:16:14;;;;;;;;;;;;;;;;;;1038979;28;1459;-58
2023/03/18 03:16:45;;;;;;;;;;;;;;;;;;1037254;28;3995;-56
2023/03/18 03:17:16;;;;;;;;;;;;;;;;;;1039388;28;1785;-53
2023/03/18 03:17:47;;;;;;;;;;;;;;;;;;1035732;28;3832;-56
2023/03/18 03:18:17;;;;;;;;;;;;;;;;;;1037243;28;2628;-53
2023/03/18 03:18:47;;;;;;;;;;;;;;;;;;1039840;28;4007;-60
2023/03/18 03:19:18;;;;;;;;;;;;;;;;;;1037384;28;3051;-57
2023/03/18 03:19:48;;;;;;;;;;;;;;;;;;1037573;28;3880;-57
2023/03/18 03:20:19;;;;;;;;;;;;;;;;;;1039543;28;3956;-56
2023/03/18 03:20:49;;;;;;;;;;;;;;;;;;1040185;28;2667;-56
2023/03/18 03:21:19;;;;;;;;;;;;;;;;;;1036975;28;3901;-57
2023/03/18 03:21:50;;;;;;;;;;;;;;;;;;1039251;28;1932;-61
2023/03/18 03:22:20;;;;;;;;;;;;;;;;;;1036048;28;4099;-55
2023/03/18 03:22:52;;;;;;;;;;;;;;;;;;1037023;28;2840;-60
2023/03/18 03:23:22;;;;;;;;;;;;;;;;;;1037330;28;3961;-60
2023/03/18 03:23:53;;;;;;;;;;;;;;;;;;1038414;28;2300;-58
2023/03/18 03:24:23;;;;;;;;;;;;;;;;;;1038986;28;3831;-56
2023/03/18 03:24:53;;;;;;;;;;;;;;;;;;1040513;28;1729;-53
2023/03/18 03:25:26;;;;;;;;;;;;;;;;;;1037439;28;4049;-55
2023/03/18 03:25:56;;;;;;;;;;;;;;;;;;1036858;28;2342;-56
2023/03/18 03:26:26;;;;;;;;;;;;;;;;;;1036621;28;4024;-58
2023/03/18 03:26:57;;;;;;;;;;;;;;;;;;1038383;28;3074;-54
2023/03/18 03:27:28;;;;;;;;;;;;;;;;;;1038863;28;4043;-58
2023/03/18 03:27:58;;;;;;;;;;;;;;;;;;1038584;28;1766;-57
2023/03/18 03:28:29;;;;;;;;;;;;;;;;;;1037011;28;3942;-57
2023/03/18 03:28:59;;;;;;;;;;;;;;;;;;1037806;28;1763;-58
2023/03/18 03:29:30;;;;;;;;;;;;;;;;;;1037868;28;4029;-56
2023/03/18 03:30:00;;;;;;;;;;;;;;;;;;1038192;28;1769;-54
2023/03/18 03:30:31;;;;;;;;;;;;;;;;;;1034441;28;3894;-58
2023/03/18 03:31:01;;;;;;;;;;;;;;;;;;1039153;28;2766;-56
2023/03/18 03:31:32;;;;;;;;;;;;;;;;;;1037920;28;3812;-60
2023/03/18 03:32:02;;;;;;;;;;;;;;;;;;1038193;28;1786;-56
2023/03/18 03:32:33;;;;;;;;;;;;;;;;;;1038367;28;3914;-59
2023/03/18 03:33:03;;;;;;;;;;;;;;;;;;1036201;28;2893;-56
2023/03/18 03:33:33;;;;;;;;;;;;;;;;;;1037423;28;3858;-59
2023/03/18 03:34:04;;;;;;;;;;;;;;;;;;1038788;28;2336;-58
2023/03/18 03:34:34;;;;;;;;;;;;;;;;;;1038242;28;4107;-56
2023/03/18 03:35:07;;;;;;;;;;;;;;;;;;1039121;28;1962;-57
2023/03/18 03:35:37;;;;;;;;;;;;;;;;;;1035663;28;3883;-58
2023/03/18 03:36:09;;;;;;;;;;;;;;;;;;1035798;28;2927;-54
2023/03/18 03:36:39;;;;;;;;;;;;;;;;;;1038388;28;4012;-57
2023/03/18 03:37:09;;;;;;;;;;;;;;;;;;1039194;28;1846;-59
2023/03/18 03:37:41;;;;;;;;;;;;;;;;;;1037441;28;3861;-58
2023/03/18 03:38:11;;;;;;;;;;;;;;;;;;1038602;28;2473;-58
2023/03/18 03:38:42;;;;;;;;;;;;;;;;;;1036390;28;3735;-57
2023/03/18 03:39:12;;;;;;;;;;;;;;;;;;1039163;28;1798;-57
2023/03/18 03:39:43;;;;;;;;;;;;;;;;;;1038083;28;4070;-54
2023/03/18 03:40:15;;;;;;;;;;;;;;;;;;1036740;28;2904;-58
2023/03/18 03:40:46;;;;;;;;;;;;;;;;;;1036089;28;4288;-57
2023/03/18 03:41:17;;;;;;;;;;;;;;;;;;1037106;28;2266;-58